Time;durP1;ratioP1;P1;durP2;ratioP2;P2;SDS_P1;SDS_P2;PMS_P1;PMS_P2;Temp;Humidity;BMP_temperature;BMP_pressure;BME280_temperature;BME280_humidity;BME280_pressure;Samples;Min_cycle;Max_cycle;Signal;HPM_P1;HPM_P2
2022/06/08 00:02:52;;;;;;;;;;;;;;;15.06;58.43;96985.02;110015;1250;60553;-71
2022/06/08 00:05:21;;;;;;;;;;;;;;;15.02;59.10;96985.02;109983;1250;60530;-74
2022/06/08 00:07:50;;;;;;;;;;;;;;;14.97;58.40;96981.70;109975;1250;72330;-74
2022/06/08 00:10:20;;;;;;;;;;;;;;;14.90;58.18;96981.08;109911;1250;66835;-70
2022/06/08 00:12:49;;;;;;;;;;;;;;;14.86;59.15;96983.83;109797;1251;69262;-77
2022/06/08 00:15:20;;;;;;;;;;;;;;;14.80;58.65;96977.51;109977;1250;60602;-74
2022/06/08 00:17:49;;;;;;;;;;;;;;;14.74;59.14;96975.23;109929;1250;60497;-75
2022/06/08 00:20:18;;;;;;;;;;;;;;;14.69;58.94;96971.70;109882;1250;72336;-77
2022/06/08 00:22:48;;;;;;;;;;;;;;;14.64;58.33;96970.80;109946;1250;68554;-75
2022/06/08 00:25:17;;;;;;;;;;;;;;;14.60;58.92;96971.93;110387;1250;69476;-77
2022/06/08 00:27:46;;;;;;;;;;;;;;;14.55;59.65;96970.27;109915;1250;60504;-75
2022/06/08 00:30:15;;;;;;;;;;;;;;;14.50;58.75;96969.02;109996;1250;60468;-75
2022/06/08 00:32:45;;;;;;;;;;;;;;;14.43;61.11;96963.19;109884;1251;72344;-76
2022/06/08 00:35:15;;;;;;;;;;;;;;;14.35;61.52;96964.24;109774;1252;68633;-77
2022/06/08 00:37:45;;;;;;;;;;;;;;;14.30;62.21;96958.30;109894;1250;69420;-75
2022/06/08 00:40:16;;;;;;;;;;;;;;;14.25;60.26;96958.56;109757;1251;60498;-75
2022/06/08 00:42:48;;;;;;;;;;;;;;;14.20;59.79;96960.23;109906;1250;60506;-76
2022/06/08 00:45:19;;;;;;;;;;;;;;;14.16;62.40;96958.75;109960;1250;71539;-76
2022/06/08 00:47:50;;;;;;;;;;;;;;;14.12;61.73;96954.34;109802;1250;67864;-75
2022/06/08 00:50:22;;;;;;;;;;;;;;;14.10;61.72;96953.30;109846;1251;69303;-78
2022/06/08 00:52:53;;;;;;;;;;;;;;;14.07;60.70;96953.27;110014;1250;60559;-73
2022/06/08 00:55:27;;;;;;;;;;;;;;;14.05;60.74;96952.21;109778;1250;60628;-77
2022/06/08 00:58:05;;;;;;;;;;;;;;;14.06;61.55;96950.77;110031;1250;71602;-76
2022/06/08 01:00:37;;;;;;;;;;;;;;;14.04;61.11;96949.19;109848;1250;68694;-77
2022/06/08 01:03:10;;;;;;;;;;;;;;;14.01;61.23;96949.09;109873;1250;69666;-76
2022/06/08 01:05:46;;;;;;;;;;;;;;;13.97;60.92;96949.97;109954;1250;60647;-75
2022/06/08 01:08:22;;;;;;;;;;;;;;;13.94;60.87;96946.07;110036;1250;60576;-75
2022/06/08 01:10:53;;;;;;;;;;;;;;;13.90;59.47;96945.53;109879;1251;71432;-75
2022/06/08 01:13:26;;;;;;;;;;;;;;;13.87;60.84;96945.66;109745;1251;68385;-76
2022/06/08 01:15:59;;;;;;;;;;;;;;;13.84;60.31;96941.44;109736;1250;69418;-76
2022/06/08 01:18:29;;;;;;;;;;;;;;;13.81;59.55;96937.67;109964;1250;60571;-74
2022/06/08 01:21:18;;;;;;;;;;;;;;;13.79;59.51;96932.05;109761;1251;60569;-73
2022/06/08 01:23:54;;;;;;;;;;;;;;;13.78;59.91;96930.60;109923;1250;72308;-75
2022/06/08 01:26:40;;;;;;;;;;;;;;;13.78;62.27;96931.98;109753;1250;68591;-76
2022/06/08 01:29:25;;;;;;;;;;;;;;;13.77;63.05;96929.77;109878;1250;69423;-70
2022/06/08 01:32:13;;;;;;;;;;;;;;;13.74;61.62;96930.20;109900;1250;60930;-74
2022/06/08 01:35:06;;;;;;;;;;;;;;;13.70;61.25;96933.54;109787;1250;60475;-76
2022/06/08 01:37:37;;;;;;;;;;;;;;;13.66;63.44;96931.66;110012;1250;72332;-76
2022/06/08 01:40:07;;;;;;;;;;;;;;;13.62;63.17;96932.55;110018;1250;68575;-73
2022/06/08 01:42:40;;;;;;;;;;;;;;;13.58;62.87;96928.27;109942;1250;69356;-70
2022/06/08 01:45:33;;;;;;;;;;;;;;;13.53;63.67;96930.42;109838;1251;60587;-75
2022/06/08 01:48:11;;;;;;;;;;;;;;;13.49;63.64;96933.75;109893;1249;60485;-75
2022/06/08 01:50:56;;;;;;;;;;;;;;;13.44;64.44;96936.49;109927;1250;72328;-74
2022/06/08 01:53:47;;;;;;;;;;;;;;;13.37;65.60;96932.31;110240;1250;67824;-75
2022/06/08 01:56:20;;;;;;;;;;;;;;;13.30;66.82;96931.41;109845;1251;69401;-74
2022/06/08 01:58:56;;;;;;;;;;;;;;;13.20;66.13;96934.80;109704;1251;60520;-75
2022/06/08 02:01:36;;;;;;;;;;;;;;;13.14;67.61;96934.64;109852;1250;60571;-76
2022/06/08 02:04:06;;;;;;;;;;;;;;;13.08;68.85;96937.01;109776;1251;71572;-75
2022/06/08 02:06:45;;;;;;;;;;;;;;;13.03;68.37;96934.31;109804;1250;67482;-76
2022/06/08 02:09:20;;;;;;;;;;;;;;;12.98;67.14;96931.94;109810;1251;68693;-76
2022/06/08 02:12:05;;;;;;;;;;;;;;;12.94;67.16;96925.15;109960;1250;60455;-73
2022/06/08 02:14:46;;;;;;;;;;;;;;;12.89;68.00;96926.41;109924;1250;60558;-71
2022/06/08 02:17:18;;;;;;;;;;;;;;;12.86;69.25;96927.65;109804;1251;72172;-75
2022/06/08 02:19:53;;;;;;;;;;;;;;;12.82;69.21;96929.37;109783;1251;67894;-74
2022/06/08 02:22:24;;;;;;;;;;;;;;;12.74;69.19;96926.18;109806;1250;68653;-76
2022/06/08 02:25:02;;;;;;;;;;;;;;;12.67;69.78;96921.73;109876;1250;60582;-71
2022/06/08 02:27:40;;;;;;;;;;;;;;;12.62;69.79;96921.01;109749;1250;60570;-69
2022/06/08 02:30:11;;;;;;;;;;;;;;;12.56;70.44;96919.30;109994;1250;72357;-74
2022/06/08 02:35:53;;;;;;;;;;;;;;;12.48;70.48;96914.38;110163;1250;69468;-76
2022/06/08 02:38:26;;;;;;;;;;;;;;;12.47;70.97;96916.75;109736;1251;60596;-71
2022/06/08 02:40:57;;;;;;;;;;;;;;;12.45;71.07;96920.55;109685;1253;60520;-76
2022/06/08 02:43:40;;;;;;;;;;;;;;;12.41;70.45;96917.98;109786;1251;72430;-75
2022/06/08 02:46:33;;;;;;;;;;;;;;;12.36;71.46;96920.52;109770;1253;68636;-75
2022/06/08 02:49:04;;;;;;;;;;;;;;;12.29;72.59;96918.35;109791;1251;69830;-73
2022/06/08 02:51:36;;;;;;;;;;;;;;;12.22;72.32;96918.17;109851;1251;61370;-76
2022/06/08 02:54:07;;;;;;;;;;;;;;;12.18;71.04;96922.21;109764;1253;60504;-77
2022/06/08 02:56:56;;;;;;;;;;;;;;;12.11;71.47;96918.65;109803;1251;71586;-77
2022/06/08 02:59:30;;;;;;;;;;;;;;;12.05;73.31;96922.55;109835;1251;68632;-76
2022/06/08 03:02:12;;;;;;;;;;;;;;;12.01;74.21;96921.79;109777;1251;68643;-77
2022/06/08 03:04:48;;;;;;;;;;;;;;;11.98;74.38;96921.84;109725;1251;60899;-77
2022/06/08 03:07:25;;;;;;;;;;;;;;;11.98;75.24;96922.20;109758;1251;60510;-73
2022/06/08 03:09:57;;;;;;;;;;;;;;;11.99;74.66;96924.73;109726;1251;71573;-76
2022/06/08 03:12:37;;;;;;;;;;;;;;;12.01;74.98;96928.62;109801;1251;67832;-74
2022/06/08 03:15:08;;;;;;;;;;;;;;;12.03;75.28;96933.14;109701;1251;67671;-77
2022/06/08 03:17:38;;;;;;;;;;;;;;;12.05;75.69;96931.75;109781;1253;60499;-74
2022/06/08 03:20:09;;;;;;;;;;;;;;;12.07;75.45;96934.39;110139;1251;60566;-69
2022/06/08 03:22:40;;;;;;;;;;;;;;;12.10;75.37;96936.56;109822;1252;71613;-71
2022/06/08 03:25:10;;;;;;;;;;;;;;;12.14;76.06;96936.23;109711;1251;68414;-76
2022/06/08 03:27:44;;;;;;;;;;;;;;;12.17;73.26;96934.34;109701;1251;68728;-75
2022/06/08 03:30:15;;;;;;;;;;;;;;;12.23;74.58;96942.75;109746;1251;60673;-72
2022/06/08 03:32:44;;;;;;;;;;;;;;;12.28;75.29;96937.82;109723;1253;60507;-72
2022/06/08 03:35:14;;;;;;;;;;;;;;;12.30;73.95;96939.90;109833;1251;72539;-74
2022/06/08 03:37:44;;;;;;;;;;;;;;;12.31;74.12;96944.17;109817;1250;68370;-75
2022/06/08 03:40:16;;;;;;;;;;;;;;;12.30;74.82;96941.67;109910;1250;69415;-76
2022/06/08 03:42:49;;;;;;;;;;;;;;;12.29;74.65;96943.61;109719;1250;60555;-76
2022/06/08 03:45:18;;;;;;;;;;;;;;;12.29;75.33;96948.19;109793;1250;60492;-76
2022/06/08 03:47:49;;;;;;;;;;;;;;;12.31;75.80;96947.68;109918;1250;72245;-70
2022/06/08 03:50:20;;;;;;;;;;;;;;;12.35;76.03;96948.88;109783;1250;68631;-76
2022/06/08 03:53:07;;;;;;;;;;;;;;;12.41;76.13;96949.06;109955;1250;69472;-76
2022/06/08 03:55:36;;;;;;;;;;;;;;;12.48;75.55;96951.22;109845;1250;60563;-76
2022/06/08 03:58:07;;;;;;;;;;;;;;;12.56;74.77;96948.23;109897;1250;60490;-75
2022/06/08 04:00:41;;;;;;;;;;;;;;;12.66;75.25;96944.92;109759;1250;72332;-76
2022/06/08 04:03:11;;;;;;;;;;;;;;;12.75;73.01;96948.19;110443;1250;68187;-74
2022/06/08 04:05:41;;;;;;;;;;;;;;;12.83;74.03;96950.10;109881;1250;69379;-70
2022/06/08 04:08:14;;;;;;;;;;;;;;;12.93;74.03;96950.88;110040;1250;60574;-76
2022/06/08 04:10:48;;;;;;;;;;;;;;;13.06;74.38;96948.84;109947;1249;60507;-76
2022/06/08 04:13:18;;;;;;;;;;;;;;;13.20;73.51;96948.85;109757;1250;72363;-70
2022/06/08 04:15:49;;;;;;;;;;;;;;;13.34;73.55;96951.23;109789;1250;67635;-70
2022/06/08 04:18:25;;;;;;;;;;;;;;;13.48;73.29;96949.65;109697;1251;69437;-77
2022/06/08 04:20:59;;;;;;;;;;;;;;;13.62;73.11;96951.48;109726;1250;60485;-75
2022/06/08 04:23:36;;;;;;;;;;;;;;;13.76;71.80;96954.05;109751;1251;60618;-76
2022/06/08 04:26:05;;;;;;;;;;;;;;;13.87;72.09;96959.34;109771;1250;72463;-73
2022/06/08 04:28:35;;;;;;;;;;;;;;;13.97;71.46;96956.98;109750;1250;67676;-75
2022/06/08 04:31:09;;;;;;;;;;;;;;;14.09;70.72;96956.73;109919;1250;69260;-75
2022/06/08 04:33:40;;;;;;;;;;;;;;;14.22;70.63;96949.52;109875;1250;60583;-77
2022/06/08 04:36:13;;;;;;;;;;;;;;;14.38;70.94;96950.35;109779;1251;60596;-74
2022/06/08 04:38:43;;;;;;;;;;;;;;;14.57;70.93;96954.84;109691;1251;72410;-75
2022/06/08 04:41:13;;;;;;;;;;;;;;;14.77;70.53;96960.48;109726;1251;68593;-75
2022/06/08 04:43:42;;;;;;;;;;;;;;;14.97;70.14;96957.62;109673;1253;69266;-79
2022/06/08 04:46:15;;;;;;;;;;;;;;;15.16;69.29;96961.85;110417;1251;60580;-78
2022/06/08 04:48:49;;;;;;;;;;;;;;;15.37;68.40;96958.80;109853;1251;60514;-77
2022/06/08 04:51:20;;;;;;;;;;;;;;;15.57;67.13;96956.61;109725;1251;72283;-75
2022/06/08 04:53:49;;;;;;;;;;;;;;;15.73;66.44;96952.71;109698;1251;68479;-76
2022/06/08 04:56:19;;;;;;;;;;;;;;;15.89;66.01;96954.92;109793;1251;69429;-76
2022/06/08 04:58:53;;;;;;;;;;;;;;;16.08;66.10;96956.90;109743;1252;60516;-77
2022/06/08 05:01:22;;;;;;;;;;;;;;;16.26;65.33;96959.94;109803;1250;59641;-77
2022/06/08 05:03:52;;;;;;;;;;;;;;;16.43;65.08;96959.27;109757;1251;72313;-75
2022/06/08 05:06:22;;;;;;;;;;;;;;;16.67;65.51;96964.34;109886;1250;67064;-73
2022/06/08 05:08:51;;;;;;;;;;;;;;;16.97;64.60;96962.98;109808;1251;69577;-77
2022/06/08 05:11:22;;;;;;;;;;;;;;;17.30;63.17;96963.49;109917;1250;60574;-69
2022/06/08 05:13:51;;;;;;;;;;;;;;;17.61;61.60;96964.58;109836;1253;60545;-66
2022/06/08 05:16:20;;;;;;;;;;;;;;;17.92;61.41;96965.43;109729;1251;71627;-76
2022/06/08 05:18:51;;;;;;;;;;;;;;;18.19;60.23;96967.34;109840;1249;68424;-72
2022/06/08 05:21:21;;;;;;;;;;;;;;;18.57;59.51;96965.30;109724;1252;69404;-75
2022/06/08 05:23:53;;;;;;;;;;;;;;;18.66;58.01;96969.92;109702;1251;60564;-76
2022/06/08 05:26:36;;;;;;;;;;;;;;;18.90;57.75;96971.21;109755;1252;60963;-76
2022/06/08 05:29:05;;;;;;;;;;;;;;;19.12;57.13;96976.10;109826;1251;71421;-76
2022/06/08 05:31:36;;;;;;;;;;;;;;;19.15;55.41;96978.48;109775;1251;68431;-75
2022/06/08 05:34:05;;;;;;;;;;;;;;;19.19;55.88;96976.20;109996;1252;68632;-76
2022/06/08 05:36:35;;;;;;;;;;;;;;;19.16;53.58;96977.16;110039;1251;60564;-77
2022/06/08 05:39:07;;;;;;;;;;;;;;;19.17;53.05;96976.58;109899;1250;60495;-77
2022/06/08 05:41:40;;;;;;;;;;;;;;;19.17;52.18;96979.09;109992;1250;71306;-75
2022/06/08 05:44:10;;;;;;;;;;;;;;;19.15;50.92;96979.56;109938;1250;67431;-77
2022/06/08 05:46:39;;;;;;;;;;;;;;;19.31;51.67;96978.40;109816;1250;68699;-75
2022/06/08 05:49:12;;;;;;;;;;;;;;;19.50;51.31;96977.20;109954;1250;60580;-74
2022/06/08 05:51:43;;;;;;;;;;;;;;;19.62;50.50;96978.02;109951;1250;60513;-70
2022/06/08 05:54:13;;;;;;;;;;;;;;;19.63;50.61;96974.29;109935;1250;73336;-74
2022/06/08 05:56:42;;;;;;;;;;;;;;;19.78;50.73;96975.54;109949;1250;67924;-69
2022/06/08 05:59:11;;;;;;;;;;;;;;;19.93;51.57;96975.63;109952;1250;67915;-72
2022/06/08 06:01:42;;;;;;;;;;;;;;;20.05;50.69;96975.73;110011;1250;60513;-76
2022/06/08 06:04:12;;;;;;;;;;;;;;;20.10;50.14;96967.02;110012;1250;60490;-75
2022/06/08 06:06:45;;;;;;;;;;;;;;;20.13;49.39;96965.63;110888;1250;72024;-76
2022/06/08 06:09:19;;;;;;;;;;;;;;;20.21;49.98;96967.55;110785;1250;67667;-75
2022/06/08 06:11:50;;;;;;;;;;;;;;;20.32;49.72;96968.64;109908;1250;69535;-75
2022/06/08 06:14:20;;;;;;;;;;;;;;;20.46;49.45;96967.03;109761;1250;60555;-74
2022/06/08 06:16:52;;;;;;;;;;;;;;;20.69;48.71;96969.20;109963;1249;60411;-77
2022/06/08 06:19:23;;;;;;;;;;;;;;;20.82;48.06;96967.79;109878;1250;72343;-73
2022/06/08 06:22:14;;;;;;;;;;;;;;;21.08;47.30;96966.88;110002;1250;68719;-69
2022/06/08 06:25:05;;;;;;;;;;;;;;;21.38;46.61;96964.57;110343;1250;68698;-75
2022/06/08 06:27:45;;;;;;;;;;;;;;;21.71;45.99;96966.54;109477;1250;549610;-68
2022/06/08 06:30:26;;;;;;;;;;;;;;;22.08;45.00;96964.77;109975;1250;60482;-75
2022/06/08 06:32:55;;;;;;;;;;;;;;;22.51;45.03;96960.85;109977;1250;71403;-75
2022/06/08 06:35:26;;;;;;;;;;;;;;;22.90;43.96;96962.02;109746;1250;68567;-74
2022/06/08 06:38:03;;;;;;;;;;;;;;;23.32;42.68;96963.79;110038;1250;69401;-65
2022/06/08 06:40:35;;;;;;;;;;;;;;;23.81;43.00;96962.43;109768;1250;60549;-69
2022/06/08 06:43:05;;;;;;;;;;;;;;;24.32;40.67;96952.53;109914;1250;60504;-68
2022/06/08 06:45:40;;;;;;;;;;;;;;;24.90;39.08;96951.36;109973;1250;71585;-74
2022/06/08 06:48:38;;;;;;;;;;;;;;;25.20;37.73;96952.23;109647;1253;68284;-77
2022/06/08 06:51:11;;;;;;;;;;;;;;;25.45;36.36;96949.16;109990;1249;69443;-75
2022/06/08 06:53:40;;;;;;;;;;;;;;;25.63;35.83;96947.84;109884;1250;60553;-76
2022/06/08 06:56:10;;;;;;;;;;;;;;;25.62;36.15;96946.90;109849;1250;60632;-74
2022/06/08 06:58:48;;;;;;;;;;;;;;;25.66;35.62;96940.56;109711;1253;72406;-71
2022/06/08 07:01:19;;;;;;;;;;;;;;;25.95;35.61;96937.91;109495;1251;67848;-67
2022/06/08 07:03:49;;;;;;;;;;;;;;;26.28;35.25;96934.70;109819;1250;69393;-66
2022/06/08 07:06:18;;;;;;;;;;;;;;;26.52;35.29;96937.02;109711;1250;60564;-66
2022/06/08 07:08:47;;;;;;;;;;;;;;;26.70;34.69;96935.61;109783;1250;60527;-68
2022/06/08 07:11:35;;;;;;;;;;;;;;;26.74;33.35;96935.20;110058;1250;72371;-66
2022/06/08 07:14:12;;;;;;;;;;;;;;;26.67;32.43;96930.33;109707;1250;67825;-71
2022/06/08 07:16:41;;;;;;;;;;;;;;;26.59;33.19;96928.33;109885;1250;69534;-76
2022/06/08 07:19:11;;;;;;;;;;;;;;;26.67;33.50;96926.42;109764;1250;60507;-74
2022/06/08 07:21:41;;;;;;;;;;;;;;;26.66;32.35;96935.12;109739;1250;60510;-70
2022/06/08 07:24:21;;;;;;;;;;;;;;;26.46;32.32;96936.89;109732;1250;72361;-77
2022/06/08 07:26:50;;;;;;;;;;;;;;;26.37;32.84;96934.04;109966;1250;68540;-78
2022/06/08 07:29:18;;;;;;;;;;;;;;;26.30;32.91;96934.05;110468;1250;69429;-76
2022/06/08 07:31:47;;;;;;;;;;;;;;;26.45;33.30;96932.27;110030;1250;60622;-76
2022/06/08 07:34:17;;;;;;;;;;;;;;;26.68;33.63;96929.46;109904;1250;60485;-72
2022/06/08 07:36:47;;;;;;;;;;;;;;;26.81;32.75;96926.69;109735;1250;71609;-76
2022/06/08 07:39:17;;;;;;;;;;;;;;;26.90;32.73;96928.33;109892;1251;68548;-73
2022/06/08 07:41:47;;;;;;;;;;;;;;;27.06;32.71;96930.02;109731;1250;69533;-69
2022/06/08 07:44:17;;;;;;;;;;;;;;;27.18;31.90;96927.45;109906;1250;60930;-75
2022/06/08 07:46:46;;;;;;;;;;;;;;;27.28;32.21;96929.20;109855;1250;60513;-73
2022/06/08 07:52:05;;;;;;;;;;;;;;;27.79;31.30;96931.56;109911;1250;68631;-74
2022/06/08 07:54:34;;;;;;;;;;;;;;;27.80;31.35;96930.46;109807;1250;69410;-73
2022/06/08 07:57:04;;;;;;;;;;;;;;;27.69;30.18;96922.95;109704;1250;60491;-76
2022/06/08 07:59:34;;;;;;;;;;;;;;;27.77;29.95;96919.36;109972;1250;60499;-76
2022/06/08 08:02:04;;;;;;;;;;;;;;;27.87;29.71;96917.76;109962;1250;72971;-67
2022/06/08 08:04:34;;;;;;;;;;;;;;;28.09;29.84;96916.61;109760;1250;69176;-73
2022/06/08 08:07:04;;;;;;;;;;;;;;;28.23;29.49;96915.49;109739;1250;69448;-75
2022/06/08 08:09:34;;;;;;;;;;;;;;;28.43;28.92;96912.27;109826;1250;60552;-74
2022/06/08 08:12:05;;;;;;;;;;;;;;;28.66;29.10;96912.93;109744;1250;60470;-71
2022/06/08 08:14:34;;;;;;;;;;;;;;;28.75;28.71;96909.98;109982;1250;71655;-77
2022/06/08 08:17:03;;;;;;;;;;;;;;;28.70;29.09;96912.14;109932;1250;69296;-72
2022/06/08 08:19:37;;;;;;;;;;;;;;;28.87;29.02;96909.69;109735;1252;69430;-70
2022/06/08 08:22:07;;;;;;;;;;;;;;;29.16;28.59;96908.61;109846;1252;60576;-77
2022/06/08 08:24:36;;;;;;;;;;;;;;;29.24;28.41;96906.29;109981;1250;60509;-72
2022/06/08 08:27:05;;;;;;;;;;;;;;;29.27;27.57;96903.27;109966;1249;71409;-78
2022/06/08 08:29:33;;;;;;;;;;;;;;;29.13;27.38;96904.05;109928;1250;68467;-76
2022/06/08 08:32:03;;;;;;;;;;;;;;;28.93;26.40;96903.35;109937;1250;68682;-73
2022/06/08 08:34:32;;;;;;;;;;;;;;;28.72;26.97;96901.20;109758;1250;60536;-78
2022/06/08 08:37:01;;;;;;;;;;;;;;;28.63;27.72;96898.44;110000;1250;60492;-73
2022/06/08 08:39:30;;;;;;;;;;;;;;;28.69;28.21;96890.75;110180;1252;72494;-75
2022/06/08 08:44:48;;;;;;;;;;;;;;;28.53;28.21;96885.61;109889;1252;68854;-74
2022/06/08 08:47:24;;;;;;;;;;;;;;;28.62;28.77;96882.24;109744;1253;60577;-76
2022/06/08 08:49:55;;;;;;;;;;;;;;;28.69;27.81;96888.02;109870;1252;60957;-74
2022/06/08 08:52:44;;;;;;;;;;;;;;;28.76;27.76;96886.33;109799;1251;71587;-77
2022/06/08 08:55:28;;;;;;;;;;;;;;;28.95;28.16;96885.48;109724;1253;67832;-75
2022/06/08 08:57:57;;;;;;;;;;;;;;;29.14;27.82;96883.02;109684;1252;68692;-76
2022/06/08 09:00:39;;;;;;;;;;;;;;;29.38;28.08;96879.27;109863;1251;60560;-73
2022/06/08 09:03:29;;;;;;;;;;;;;;;29.53;27.58;96878.89;109724;1253;60518;-72
2022/06/08 09:06:07;;;;;;;;;;;;;;;28.88;27.79;96884.84;109759;1252;72393;-76
2022/06/08 09:08:36;;;;;;;;;;;;;;;28.51;28.90;96882.68;109920;1250;68613;-79
2022/06/08 09:11:14;;;;;;;;;;;;;;;28.61;29.14;96878.19;109804;1253;68691;-74
2022/06/08 09:14:06;;;;;;;;;;;;;;;28.70;28.93;96878.64;109699;1253;60557;-72
2022/06/08 09:16:39;;;;;;;;;;;;;;;29.02;28.07;96876.61;109733;1252;60503;-77
2022/06/08 09:19:20;;;;;;;;;;;;;;;29.08;25.98;96878.40;109725;1252;71599;-78
2022/06/08 09:21:51;;;;;;;;;;;;;;;29.09;26.11;96874.10;109929;1252;68918;-75
2022/06/08 09:24:35;;;;;;;;;;;;;;;29.20;26.41;96871.30;109656;1253;69392;-76
2022/06/08 09:27:25;;;;;;;;;;;;;;;29.59;26.66;96873.56;109867;1253;60516;-74
2022/06/08 09:29:54;;;;;;;;;;;;;;;29.92;26.34;96871.64;109707;1250;60492;-75
2022/06/08 09:32:26;;;;;;;;;;;;;;;30.16;25.82;96864.11;109866;1251;71452;-72
2022/06/08 09:34:57;;;;;;;;;;;;;;;30.44;25.53;96861.89;109797;1251;68645;-74
2022/06/08 09:37:26;;;;;;;;;;;;;;;30.71;26.38;96854.23;109689;1250;69272;-72
2022/06/08 09:39:57;;;;;;;;;;;;;;;30.94;25.81;96852.00;109960;1250;60503;-76
2022/06/08 09:42:31;;;;;;;;;;;;;;;31.00;25.60;96850.98;109893;1250;60507;-75
2022/06/08 09:45:19;;;;;;;;;;;;;;;31.02;26.11;96851.66;109923;1250;72323;-75
2022/06/08 09:54:03;;;;;;;;;;;;;;;30.85;25.83;96843.10;110129;1250;60497;-75
2022/06/08 09:56:35;;;;;;;;;;;;;;;30.48;26.35;96838.27;109932;1250;60529;-75
2022/06/08 09:59:06;;;;;;;;;;;;;;;30.49;26.15;96837.26;109926;1250;71353;-73
2022/06/08 10:01:39;;;;;;;;;;;;;;;30.55;26.12;96834.23;109971;1250;67673;-78
2022/06/08 10:04:26;;;;;;;;;;;;;;;30.53;27.13;96832.12;109738;1253;68710;-75
2022/06/08 10:07:14;;;;;;;;;;;;;;;30.54;27.70;96830.07;109750;1251;60620;-75
2022/06/08 10:09:55;;;;;;;;;;;;;;;30.69;27.63;96822.69;109873;1251;60567;-74
2022/06/08 10:12:35;;;;;;;;;;;;;;;30.85;27.33;96822.98;109792;1252;72158;-74
2022/06/08 10:15:23;;;;;;;;;;;;;;;30.59;26.96;96816.49;109701;1253;68485;-78
2022/06/08 10:18:01;;;;;;;;;;;;;;;30.29;26.99;96813.20;109857;1250;68717;-76
2022/06/08 10:20:36;;;;;;;;;;;;;;;29.88;27.37;96812.64;109840;1250;60532;-74
2022/06/08 10:23:12;;;;;;;;;;;;;;;29.71;28.08;96809.88;109963;1250;60443;-75
2022/06/08 10:25:44;;;;;;;;;;;;;;;29.62;29.33;96812.23;109869;1250;71668;-75
2022/06/08 10:28:18;;;;;;;;;;;;;;;29.48;30.22;96811.45;109926;1250;67712;-73
2022/06/08 10:31:02;;;;;;;;;;;;;;;29.66;29.54;96806.40;109647;1250;69385;-75
2022/06/08 10:33:39;;;;;;;;;;;;;;;29.83;29.05;96808.32;109686;1250;60524;-74
2022/06/08 10:36:10;;;;;;;;;;;;;;;29.73;28.94;96806.35;109691;1250;60504;-74
2022/06/08 10:38:44;;;;;;;;;;;;;;;29.67;29.33;96801.90;109884;1252;72320;-74
2022/06/08 10:44:37;;;;;;;;;;;;;;;29.68;28.96;96796.04;109883;1250;69268;-74
2022/06/08 10:47:12;;;;;;;;;;;;;;;29.54;29.38;96796.20;109665;1250;60567;-73
2022/06/08 10:49:45;;;;;;;;;;;;;;;29.17;29.50;96799.76;109886;1250;60447;-76
2022/06/08 10:52:15;;;;;;;;;;;;;;;29.00;29.76;96790.45;109921;1250;72288;-74
2022/06/08 10:54:54;;;;;;;;;;;;;;;29.08;29.64;96792.52;109887;1250;67850;-76
2022/06/08 10:57:36;;;;;;;;;;;;;;;29.29;30.21;96784.84;109874;1250;68454;-77
2022/06/08 11:00:18;;;;;;;;;;;;;;;29.39;29.37;96780.73;110302;1250;60421;-75
2022/06/08 11:02:48;;;;;;;;;;;;;;;29.12;29.45;96785.16;110293;1250;60467;-72
2022/06/08 11:05:37;;;;;;;;;;;;;;;29.09;29.87;96776.11;110003;1248;71589;-72
2022/06/08 11:08:15;;;;;;;;;;;;;;;28.98;29.93;96780.05;109930;1250;68617;-76
2022/06/08 11:10:44;;;;;;;;;;;;;;;28.94;30.18;96780.77;109922;1250;69152;-76
2022/06/08 11:13:27;;;;;;;;;;;;;;;28.94;30.55;96777.09;109793;1250;60800;-74
2022/06/08 11:16:18;;;;;;;;;;;;;;;29.16;30.65;96774.29;109829;1250;60562;-76
2022/06/08 11:18:49;;;;;;;;;;;;;;;29.17;30.30;96772.48;109933;1250;72600;-75
2022/06/08 11:21:22;;;;;;;;;;;;;;;29.02;30.85;96773.48;109731;1250;68645;-75
2022/06/08 11:23:54;;;;;;;;;;;;;;;28.97;31.15;96766.66;109920;1250;69470;-75
2022/06/08 11:26:23;;;;;;;;;;;;;;;29.04;30.17;96768.65;110017;1250;60528;-73
2022/06/08 11:29:00;;;;;;;;;;;;;;;28.92;29.96;96766.02;109927;1250;60548;-75
2022/06/08 11:31:29;;;;;;;;;;;;;;;28.99;30.23;96762.89;109809;1251;71643;-68
2022/06/08 11:34:18;;;;;;;;;;;;;;;29.01;30.24;96758.76;109739;1250;67643;-73
2022/06/08 11:36:54;;;;;;;;;;;;;;;29.25;30.16;96757.05;109731;1250;69327;-75
2022/06/08 11:39:26;;;;;;;;;;;;;;;29.42;30.06;96757.04;109932;1250;60556;-75
2022/06/08 11:42:00;;;;;;;;;;;;;;;29.49;29.87;96745.94;109910;1250;60483;-75
2022/06/08 11:44:34;;;;;;;;;;;;;;;29.69;30.10;96744.29;109921;1250;73017;-76
2022/06/08 11:47:15;;;;;;;;;;;;;;;29.74;29.26;96742.79;109962;1250;69240;-67
2022/06/08 11:49:45;;;;;;;;;;;;;;;29.81;28.54;96731.68;109907;1250;68798;-75
2022/06/08 11:52:18;;;;;;;;;;;;;;;29.82;28.34;96735.48;109932;1250;60584;-74
2022/06/08 11:54:57;;;;;;;;;;;;;;;29.65;28.06;96739.77;109892;1250;60473;-65
2022/06/08 11:57:27;;;;;;;;;;;;;;;29.53;27.85;96736.35;109921;1250;72361;-68
2022/06/08 11:59:57;;;;;;;;;;;;;;;29.41;28.20;96731.23;109933;1250;67970;-73
2022/06/08 12:02:34;;;;;;;;;;;;;;;29.38;28.00;96731.39;109893;1250;69526;-75
2022/06/08 12:05:04;;;;;;;;;;;;;;;29.31;27.96;96732.15;109779;1251;60549;-75
2022/06/08 12:07:35;;;;;;;;;;;;;;;29.33;28.32;96725.23;109981;1250;60464;-74
2022/06/08 12:10:05;;;;;;;;;;;;;;;29.53;27.78;96718.00;110241;1250;71568;-69
2022/06/08 12:12:34;;;;;;;;;;;;;;;29.68;27.35;96718.37;109869;1250;67812;-76
2022/06/08 12:15:21;;;;;;;;;;;;;;;29.81;27.55;96708.73;109714;1250;68687;-76
2022/06/08 12:17:50;;;;;;;;;;;;;;;30.00;27.94;96711.98;109895;1250;60559;-70
2022/06/08 12:20:34;;;;;;;;;;;;;;;30.04;27.68;96715.95;109742;1252;60573;-75
2022/06/08 12:23:03;;;;;;;;;;;;;;;30.02;27.28;96706.34;109923;1250;72975;-74
2022/06/08 12:25:32;;;;;;;;;;;;;;;30.04;27.17;96709.27;109938;1250;68780;-75
2022/06/08 12:28:03;;;;;;;;;;;;;;;30.05;26.37;96708.31;109866;1250;69537;-68
2022/06/08 12:30:37;;;;;;;;;;;;;;;29.90;26.03;96706.73;109740;1251;60633;-76
2022/06/08 12:33:17;;;;;;;;;;;;;;;29.91;26.25;96706.53;109916;1250;60562;-74
2022/06/08 12:35:56;;;;;;;;;;;;;;;29.96;26.65;96705.25;109894;1250;71827;-75
2022/06/08 12:38:27;;;;;;;;;;;;;;;30.01;26.47;96705.52;109922;1250;68397;-74
2022/06/08 12:40:58;;;;;;;;;;;;;;;30.02;26.68;96705.20;109922;1250;68845;-72
2022/06/08 12:43:46;;;;;;;;;;;;;;;30.09;26.94;96697.42;109789;1250;60557;-77
2022/06/08 12:46:28;;;;;;;;;;;;;;;30.23;27.32;96700.55;109801;1250;60549;-75
2022/06/08 12:48:59;;;;;;;;;;;;;;;30.29;27.47;96698.61;109921;1250;72379;-74
2022/06/08 12:51:29;;;;;;;;;;;;;;;30.18;27.22;96693.34;109907;1250;68534;-73
2022/06/08 12:53:59;;;;;;;;;;;;;;;30.23;27.18;96693.39;109904;1250;68675;-74
2022/06/08 12:56:28;;;;;;;;;;;;;;;30.22;26.97;96693.64;109822;1250;60576;-70
2022/06/08 12:58:57;;;;;;;;;;;;;;;30.23;27.03;96692.63;109808;1252;60512;-69
2022/06/08 13:01:28;;;;;;;;;;;;;;;30.21;26.78;96692.98;109864;1250;71450;-75
2022/06/08 13:03:57;;;;;;;;;;;;;;;29.98;27.07;96695.58;109821;1250;68670;-74
2022/06/08 13:06:26;;;;;;;;;;;;;;;29.82;27.27;96692.80;109866;1250;69004;-76
2022/06/08 13:08:54;;;;;;;;;;;;;;;29.58;27.56;96687.91;109891;1250;60538;-76
2022/06/08 13:11:24;;;;;;;;;;;;;;;29.20;28.09;96688.45;109886;1250;60483;-77
2022/06/08 13:13:55;;;;;;;;;;;;;;;28.76;29.04;96689.86;109875;1250;72437;-74
2022/06/08 13:16:28;;;;;;;;;;;;;;;28.78;28.88;96688.16;110395;1250;68506;-71
2022/06/08 13:18:58;;;;;;;;;;;;;;;28.89;28.86;96680.59;109854;1250;68712;-72
2022/06/08 13:21:27;;;;;;;;;;;;;;;28.87;28.91;96677.95;110002;1250;60498;-75
2022/06/08 13:23:57;;;;;;;;;;;;;;;28.66;29.25;96680.29;109690;1251;60564;-75
2022/06/08 13:26:27;;;;;;;;;;;;;;;28.57;29.44;96675.71;109914;1250;72955;-72
2022/06/08 13:28:59;;;;;;;;;;;;;;;28.76;29.85;96675.40;109693;1251;68607;-75